sensor_id;sensor_type;location;lat;lon;timestamp;pressure;altitude;pressure_sealevel;temperature;humidity
78615;BME280;67937;52.488;20.952;2023-11-21T00:00:15;100040.90;;;-0.92;90.77
78615;BME280;67937;52.488;20.952;2023-11-21T00:03:04;100047.92;;;-0.90;90.73
78615;BME280;67937;52.488;20.952;2023-11-21T00:05:33;100048.45;;;-0.90;90.75
78615;BME280;67937;52.488;20.952;2023-11-21T00:08:01;100051.21;;;-0.85;90.64
78615;BME280;67937;52.488;20.952;2023-11-21T00:10:29;100054.84;;;-0.85;90.31
78615;BME280;67937;52.488;20.952;2023-11-21T00:12:57;100058.80;;;-0.89;90.55
78615;BME280;67937;52.488;20.952;2023-11-21T00:15:25;100065.88;;;-0.89;90.61
78615;BME280;67937;52.488;20.952;2023-11-21T00:17:53;100068.02;;;-0.90;90.61
78615;BME280;67937;52.488;20.952;2023-11-21T00:20:21;100070.61;;;-0.90;90.74
78615;BME280;67937;52.488;20.952;2023-11-21T00:22:49;100072.13;;;-0.89;90.76
78615;BME280;67937;52.488;20.952;2023-11-21T00:25:17;100077.98;;;-0.88;90.86
78615;BME280;67937;52.488;20.952;2023-11-21T00:27:45;100073.00;;;-0.85;90.86
78615;BME280;67937;52.488;20.952;2023-11-21T00:30:13;100070.20;;;-0.84;90.93
78615;BME280;67937;52.488;20.952;2023-11-21T00:32:41;100069.25;;;-0.82;91.09
78615;BME280;67937;52.488;20.952;2023-11-21T00:35:09;100071.29;;;-0.81;91.16
78615;BME280;67937;52.488;20.952;2023-11-21T00:37:37;100071.23;;;-0.79;91.11
78615;BME280;67937;52.488;20.952;2023-11-21T00:40:05;100073.44;;;-0.82;90.97
78615;BME280;67937;52.488;20.952;2023-11-21T00:42:34;100071.00;;;-0.87;90.76
78615;BME280;67937;52.488;20.952;2023-11-21T00:45:02;100071.28;;;-0.90;90.85
78615;BME280;67937;52.488;20.952;2023-11-21T00:47:30;100072.09;;;-0.88;91.08
78615;BME280;67937;52.488;20.952;2023-11-21T00:49:58;100078.14;;;-0.88;91.04
78615;BME280;67937;52.488;20.952;2023-11-21T00:52:26;100077.84;;;-0.89;91.08
78615;BME280;67937;52.488;20.952;2023-11-21T00:54:54;100073.09;;;-0.92;91.25
78615;BME280;67937;52.488;20.952;2023-11-21T00:57:22;100079.55;;;-0.88;91.29
78615;BME280;67937;52.488;20.952;2023-11-21T00:59:50;100081.95;;;-0.88;91.27
78615;BME280;67937;52.488;20.952;2023-11-21T01:02:18;100077.86;;;-0.89;91.24
78615;BME280;67937;52.488;20.952;2023-11-21T01:04:45;100081.69;;;-0.90;91.38
78615;BME280;67937;52.488;20.952;2023-11-21T01:07:14;100077.97;;;-0.88;91.51
78615;BME280;67937;52.488;20.952;2023-11-21T01:09:42;100079.88;;;-0.83;91.23
78615;BME280;67937;52.488;20.952;2023-11-21T01:12:10;100081.09;;;-0.88;91.08
78615;BME280;67937;52.488;20.952;2023-11-21T01:14:38;100083.13;;;-0.92;91.07
78615;BME280;67937;52.488;20.952;2023-11-21T01:17:06;100084.80;;;-0.90;90.68
78615;BME280;67937;52.488;20.952;2023-11-21T01:19:34;100088.30;;;-0.95;90.68
78615;BME280;67937;52.488;20.952;2023-11-21T01:22:02;100087.27;;;-0.96;90.61
78615;BME280;67937;52.488;20.952;2023-11-21T01:24:30;100087.34;;;-0.97;90.45
78615;BME280;67937;52.488;20.952;2023-11-21T01:26:58;100087.80;;;-1.01;90.40
78615;BME280;67937;52.488;20.952;2023-11-21T01:29:26;100092.20;;;-1.02;90.48
78615;BME280;67937;52.488;20.952;2023-11-21T01:31:54;100097.11;;;-1.00;90.50
78615;BME280;67937;52.488;20.952;2023-11-21T01:34:23;100098.11;;;-0.99;90.53
78615;BME280;67937;52.488;20.952;2023-11-21T01:36:51;100100.83;;;-0.97;90.45
78615;BME280;67937;52.488;20.952;2023-11-21T01:39:19;100102.68;;;-0.96;90.51
78615;BME280;67937;52.488;20.952;2023-11-21T01:41:50;100107.02;;;-1.01;90.72
78615;BME280;67937;52.488;20.952;2023-11-21T01:44:19;100110.42;;;-0.99;90.76
78615;BME280;67937;52.488;20.952;2023-11-21T01:46:47;100109.89;;;-0.99;90.86
78615;BME280;67937;52.488;20.952;2023-11-21T01:49:15;100109.27;;;-1.01;90.93
78615;BME280;67937;52.488;20.952;2023-11-21T01:51:45;100113.65;;;-1.02;91.05
78615;BME280;67937;52.488;20.952;2023-11-21T01:54:16;100113.43;;;-1.01;91.05
78615;BME280;67937;52.488;20.952;2023-11-21T01:56:46;100109.27;;;-1.01;90.99
78615;BME280;67937;52.488;20.952;2023-11-21T01:59:18;100108.62;;;-1.02;90.94
78615;BME280;67937;52.488;20.952;2023-11-21T02:01:48;100104.39;;;-1.05;90.97
78615;BME280;67937;52.488;20.952;2023-11-21T02:04:17;100101.97;;;-1.05;91.14
78615;BME280;67937;52.488;20.952;2023-11-21T02:06:45;100106.67;;;-1.01;91.05
78615;BME280;67937;52.488;20.952;2023-11-21T02:09:13;100102.23;;;-1.02;91.03
78615;BME280;67937;52.488;20.952;2023-11-21T02:11:42;100105.56;;;-1.04;91.02
78615;BME280;67937;52.488;20.952;2023-11-21T02:14:10;100104.09;;;-1.06;90.99
78615;BME280;67937;52.488;20.952;2023-11-21T02:16:40;100108.25;;;-1.06;91.07
78615;BME280;67937;52.488;20.952;2023-11-21T02:19:10;100112.42;;;-1.07;90.97
78615;BME280;67937;52.488;20.952;2023-11-21T02:21:41;100117.70;;;-1.09;90.98
78615;BME280;67937;52.488;20.952;2023-11-21T02:24:11;100115.71;;;-1.06;90.98
78615;BME280;67937;52.488;20.952;2023-11-21T02:26:39;100119.77;;;-1.09;90.90
78615;BME280;67937;52.488;20.952;2023-11-21T02:29:07;100123.39;;;-1.08;90.99
78615;BME280;67937;52.488;20.952;2023-11-21T02:31:39;100125.62;;;-1.08;90.86
78615;BME280;67937;52.488;20.952;2023-11-21T02:34:15;100127.95;;;-1.10;90.91
78615;BME280;67937;52.488;20.952;2023-11-21T02:36:43;100128.98;;;-1.10;90.91
78615;BME280;67937;52.488;20.952;2023-11-21T02:39:12;100127.35;;;-1.07;90.81
78615;BME280;67937;52.488;20.952;2023-11-21T02:41:40;100131.60;;;-1.10;90.69
78615;BME280;67937;52.488;20.952;2023-11-21T02:44:08;100139.17;;;-1.09;90.76
78615;BME280;67937;52.488;20.952;2023-11-21T02:46:37;100141.91;;;-1.08;90.82
78615;BME280;67937;52.488;20.952;2023-11-21T02:49:06;100141.74;;;-1.08;90.80
78615;BME280;67937;52.488;20.952;2023-11-21T02:51:34;100140.94;;;-1.10;90.81
78615;BME280;67937;52.488;20.952;2023-11-21T02:54:01;100143.55;;;-1.10;90.82
78615;BME280;67937;52.488;20.952;2023-11-21T02:56:33;100149.81;;;-1.11;90.76
78615;BME280;67937;52.488;20.952;2023-11-21T02:59:00;100145.20;;;-1.13;90.65
78615;BME280;67937;52.488;20.952;2023-11-21T03:01:29;100142.50;;;-1.15;90.57
78615;BME280;67937;52.488;20.952;2023-11-21T03:03:56;100144.93;;;-1.15;90.57
78615;BME280;67937;52.488;20.952;2023-11-21T03:06:24;100148.59;;;-1.16;90.34
78615;BME280;67937;52.488;20.952;2023-11-21T03:08:52;100152.89;;;-1.15;90.42
78615;BME280;67937;52.488;20.952;2023-11-21T03:11:20;100155.84;;;-1.15;90.44
78615;BME280;67937;52.488;20.952;2023-11-21T03:13:48;100159.75;;;-1.13;90.45
78615;BME280;67937;52.488;20.952;2023-11-21T03:16:16;100156.59;;;-1.12;90.43
78615;BME280;67937;52.488;20.952;2023-11-21T03:18:45;100155.48;;;-1.10;90.25
78615;BME280;67937;52.488;20.952;2023-11-21T03:21:13;100158.27;;;-1.10;90.37
78615;BME280;67937;52.488;20.952;2023-11-21T03:23:41;100158.23;;;-1.09;90.38
78615;BME280;67937;52.488;20.952;2023-11-21T03:26:12;100160.20;;;-1.07;90.38
78615;BME280;67937;52.488;20.952;2023-11-21T03:28:40;100160.95;;;-1.08;90.37
78615;BME280;67937;52.488;20.952;2023-11-21T03:31:08;100164.45;;;-1.09;90.46
78615;BME280;67937;52.488;20.952;2023-11-21T03:33:37;100164.31;;;-1.10;90.64
78615;BME280;67937;52.488;20.952;2023-11-21T03:36:05;100164.52;;;-1.11;90.46
78615;BME280;67937;52.488;20.952;2023-11-21T03:38:34;100164.95;;;-1.13;90.55
78615;BME280;67937;52.488;20.952;2023-11-21T03:41:02;100158.77;;;-1.15;90.56
78615;BME280;67937;52.488;20.952;2023-11-21T03:43:30;100162.39;;;-1.15;90.48
78615;BME280;67937;52.488;20.952;2023-11-21T03:45:58;100162.59;;;-1.15;90.56
78615;BME280;67937;52.488;20.952;2023-11-21T03:48:26;100163.05;;;-1.14;90.60
78615;BME280;67937;52.488;20.952;2023-11-21T03:50:53;100163.27;;;-1.14;90.62
78615;BME280;67937;52.488;20.952;2023-11-21T03:53:21;100164.02;;;-1.16;90.43
78615;BME280;67937;52.488;20.952;2023-11-21T03:55:49;100164.33;;;-1.20;90.43
78615;BME280;67937;52.488;20.952;2023-11-21T03:58:17;100166.19;;;-1.19;90.46
78615;BME280;67937;52.488;20.952;2023-11-21T04:00:47;100167.73;;;-1.19;90.55
78615;BME280;67937;52.488;20.952;2023-11-21T04:03:15;100162.55;;;-1.19;90.46
78615;BME280;67937;52.488;20.952;2023-11-21T04:05:43;100162.26;;;-1.21;90.49
78615;BME280;67937;52.488;20.952;2023-11-21T04:08:12;100166.40;;;-1.20;90.45
78615;BME280;67937;52.488;20.952;2023-11-21T04:10:40;100169.68;;;-1.20;90.54
78615;BME280;67937;52.488;20.952;2023-11-21T04:13:08;100174.50;;;-1.19;90.55
78615;BME280;67937;52.488;20.952;2023-11-21T04:15:37;100180.56;;;-1.20;90.30
78615;BME280;67937;52.488;20.952;2023-11-21T04:18:05;100186.16;;;-1.21;90.51
78615;BME280;67937;52.488;20.952;2023-11-21T04:20:32;100194.56;;;-1.19;90.44
78615;BME280;67937;52.488;20.952;2023-11-21T04:23:00;100197.64;;;-1.18;90.54
78615;BME280;67937;52.488;20.952;2023-11-21T04:25:29;100197.04;;;-1.15;90.45
78615;BME280;67937;52.488;20.952;2023-11-21T04:27:57;100203.92;;;-1.19;90.44
78615;BME280;67937;52.488;20.952;2023-11-21T04:30:25;100208.41;;;-1.18;90.47
78615;BME280;67937;52.488;20.952;2023-11-21T04:32:53;100214.91;;;-1.16;90.34
78615;BME280;67937;52.488;20.952;2023-11-21T04:35:21;100218.23;;;-1.17;90.45
78615;BME280;67937;52.488;20.952;2023-11-21T04:37:49;100221.98;;;-1.15;90.58
78615;BME280;67937;52.488;20.952;2023-11-21T04:40:17;100219.69;;;-1.14;90.51
78615;BME280;67937;52.488;20.952;2023-11-21T04:42:47;100222.92;;;-1.13;90.53
78615;BME280;67937;52.488;20.952;2023-11-21T04:45:15;100223.94;;;-1.12;90.58
78615;BME280;67937;52.488;20.952;2023-11-21T04:47:43;100226.33;;;-1.11;90.47
78615;BME280;67937;52.488;20.952;2023-11-21T04:50:11;100225.71;;;-1.14;90.48
78615;BME280;67937;52.488;20.952;2023-11-21T04:52:39;100225.02;;;-1.13;90.33
78615;BME280;67937;52.488;20.952;2023-11-21T04:55:07;100223.35;;;-1.15;90.26
78615;BME280;67937;52.488;20.952;2023-11-21T04:57:36;100223.58;;;-1.17;90.30
78615;BME280;67937;52.488;20.952;2023-11-21T05:00:05;100226.02;;;-1.17;90.37
78615;BME280;67937;52.488;20.952;2023-11-21T05:02:33;100227.96;;;-1.18;90.29
78615;BME280;67937;52.488;20.952;2023-11-21T05:05:02;100234.75;;;-1.20;90.34
78615;BME280;67937;52.488;20.952;2023-11-21T05:07:32;100233.52;;;-1.19;90.37
78615;BME280;67937;52.488;20.952;2023-11-21T05:10:02;100234.97;;;-1.16;90.41
78615;BME280;67937;52.488;20.952;2023-11-21T05:12:32;100239.44;;;-1.15;90.15
78615;BME280;67937;52.488;20.952;2023-11-21T05:15:01;100242.67;;;-1.18;90.14
78615;BME280;67937;52.488;20.952;2023-11-21T05:17:34;100243.73;;;-1.19;90.16
78615;BME280;67937;52.488;20.952;2023-11-21T05:20:03;100242.69;;;-1.19;90.21
78615;BME280;67937;52.488;20.952;2023-11-21T05:22:35;100249.83;;;-1.20;90.27
78615;BME280;67937;52.488;20.952;2023-11-21T05:25:03;100251.06;;;-1.21;90.07
78615;BME280;67937;52.488;20.952;2023-11-21T05:27:31;100253.41;;;-1.19;90.21
78615;BME280;67937;52.488;20.952;2023-11-21T05:30:02;100253.23;;;-1.19;89.91
78615;BME280;67937;52.488;20.952;2023-11-21T05:32:34;100255.27;;;-1.22;89.73
78615;BME280;67937;52.488;20.952;2023-11-21T05:35:02;100259.58;;;-1.22;89.60
78615;BME280;67937;52.488;20.952;2023-11-21T05:37:31;100261.75;;;-1.25;89.40
78615;BME280;67937;52.488;20.952;2023-11-21T05:39:59;100264.55;;;-1.26;89.58
78615;BME280;67937;52.488;20.952;2023-11-21T05:42:33;100269.50;;;-1.24;89.78
78615;BME280;67937;52.488;20.952;2023-11-21T05:45:02;100267.19;;;-1.22;89.63
78615;BME280;67937;52.488;20.952;2023-11-21T05:47:37;100276.11;;;-1.24;89.55
78615;BME280;67937;52.488;20.952;2023-11-21T05:50:10;100276.73;;;-1.22;89.71
78615;BME280;67937;52.488;20.952;2023-11-21T05:52:42;100278.67;;;-1.18;89.82
78615;BME280;67937;52.488;20.952;2023-11-21T05:55:11;100280.04;;;-1.18;89.81
78615;BME280;67937;52.488;20.952;2023-11-21T05:57:40;100282.60;;;-1.16;89.91
78615;BME280;67937;52.488;20.952;2023-11-21T06:00:10;100285.13;;;-1.14;89.89
78615;BME280;67937;52.488;20.952;2023-11-21T06:02:42;100285.44;;;-1.13;89.86
78615;BME280;67937;52.488;20.952;2023-11-21T06:05:10;100286.79;;;-1.12;90.03
78615;BME280;67937;52.488;20.952;2023-11-21T06:07:38;100290.36;;;-1.10;89.86
78615;BME280;67937;52.488;20.952;2023-11-21T06:10:07;100295.02;;;-1.09;89.91
78615;BME280;67937;52.488;20.952;2023-11-21T06:12:38;100298.33;;;-1.10;89.78
78615;BME280;67937;52.488;20.952;2023-11-21T06:15:07;100302.52;;;-1.12;89.85
78615;BME280;67937;52.488;20.952;2023-11-21T06:17:35;100308.52;;;-1.09;89.78
78615;BME280;67937;52.488;20.952;2023-11-21T06:20:08;100310.69;;;-1.12;89.61
78615;BME280;67937;52.488;20.952;2023-11-21T06:22:38;100311.27;;;-1.14;89.61
78615;BME280;67937;52.488;20.952;2023-11-21T06:25:08;100307.87;;;-1.16;89.64
78615;BME280;67937;52.488;20.952;2023-11-21T06:27:39;100311.30;;;-1.15;89.66
78615;BME280;67937;52.488;20.952;2023-11-21T06:30:08;100318.42;;;-1.16;89.70
78615;BME280;67937;52.488;20.952;2023-11-21T06:32:36;100321.61;;;-1.13;89.72
78615;BME280;67937;52.488;20.952;2023-11-21T06:35:05;100321.11;;;-1.13;89.63
78615;BME280;67937;52.488;20.952;2023-11-21T06:37:33;100324.00;;;-1.12;89.80
78615;BME280;67937;52.488;20.952;2023-11-21T06:40:02;100327.14;;;-1.13;89.66
78615;BME280;67937;52.488;20.952;2023-11-21T06:42:32;100323.73;;;-1.14;89.58
78615;BME280;67937;52.488;20.952;2023-11-21T06:45:01;100326.72;;;-1.16;89.54
78615;BME280;67937;52.488;20.952;2023-11-21T06:47:30;100330.98;;;-1.14;89.79
78615;BME280;67937;52.488;20.952;2023-11-21T06:49:59;100328.33;;;-1.12;89.68
78615;BME280;67937;52.488;20.952;2023-11-21T06:52:27;100330.55;;;-1.11;89.62
78615;BME280;67937;52.488;20.952;2023-11-21T06:54:55;100330.10;;;-1.13;89.45
78615;BME280;67937;52.488;20.952;2023-11-21T06:57:23;100336.84;;;-1.13;89.45
78615;BME280;67937;52.488;20.952;2023-11-21T06:59:51;100338.06;;;-1.13;89.41
78615;BME280;67937;52.488;20.952;2023-11-21T07:02:19;100340.73;;;-1.15;89.39
78615;BME280;67937;52.488;20.952;2023-11-21T07:04:47;100348.18;;;-1.15;89.13
78615;BME280;67937;52.488;20.952;2023-11-21T07:07:15;100351.64;;;-1.15;89.30
78615;BME280;67937;52.488;20.952;2023-11-21T07:09:43;100357.51;;;-1.15;89.16
78615;BME280;67937;52.488;20.952;2023-11-21T07:12:11;100357.79;;;-1.13;89.07
78615;BME280;67937;52.488;20.952;2023-11-21T07:14:40;100356.73;;;-1.12;89.07
78615;BME280;67937;52.488;20.952;2023-11-21T07:17:11;100359.08;;;-1.10;89.11
78615;BME280;67937;52.488;20.952;2023-11-21T07:19:39;100361.75;;;-1.07;89.20
78615;BME280;67937;52.488;20.952;2023-11-21T07:22:08;100364.39;;;-1.03;89.24
78615;BME280;67937;52.488;20.952;2023-11-21T07:24:36;100365.27;;;-1.03;89.23
78615;BME280;67937;52.488;20.952;2023-11-21T07:27:04;100364.20;;;-1.02;89.27
78615;BME280;67937;52.488;20.952;2023-11-21T07:29:32;100368.42;;;-0.99;89.43
78615;BME280;67937;52.488;20.952;2023-11-21T07:32:00;100367.34;;;-0.98;89.34
78615;BME280;67937;52.488;20.952;2023-11-21T07:34:28;100367.48;;;-0.96;89.35
78615;BME280;67937;52.488;20.952;2023-11-21T07:36:56;100369.58;;;-0.97;89.18
78615;BME280;67937;52.488;20.952;2023-11-21T07:39:24;100364.07;;;-0.98;89.20
78615;BME280;67937;52.488;20.952;2023-11-21T07:41:52;100365.48;;;-0.99;89.26
78615;BME280;67937;52.488;20.952;2023-11-21T07:44:20;100364.15;;;-0.95;89.40
78615;BME280;67937;52.488;20.952;2023-11-21T07:46:48;100369.31;;;-0.94;89.44
78615;BME280;67937;52.488;20.952;2023-11-21T07:49:17;100373.25;;;-0.92;89.34
78615;BME280;67937;52.488;20.952;2023-11-21T07:51:47;100375.90;;;-0.94;89.31
78615;BME280;67937;52.488;20.952;2023-11-21T07:54:16;100385.58;;;-0.94;89.33
78615;BME280;67937;52.488;20.952;2023-11-21T07:56:43;100385.95;;;-0.94;89.42
78615;BME280;67937;52.488;20.952;2023-11-21T07:59:11;100388.69;;;-0.93;89.49
78615;BME280;67937;52.488;20.952;2023-11-21T08:01:40;100393.05;;;-0.89;89.50
78615;BME280;67937;52.488;20.952;2023-11-21T08:04:09;100394.84;;;-0.86;89.51
78615;BME280;67937;52.488;20.952;2023-11-21T08:06:37;100394.07;;;-0.83;89.42
78615;BME280;67937;52.488;20.952;2023-11-21T08:09:05;100394.65;;;-0.80;89.39
78615;BME280;67937;52.488;20.952;2023-11-21T08:11:34;100390.70;;;-0.81;89.24
78615;BME280;67937;52.488;20.952;2023-11-21T08:14:05;100393.45;;;-0.80;89.34
78615;BME280;67937;52.488;20.952;2023-11-21T08:16:33;100393.34;;;-0.76;89.20
78615;BME280;67937;52.488;20.952;2023-11-21T08:19:01;100396.98;;;-0.76;89.32
78615;BME280;67937;52.488;20.952;2023-11-21T08:21:29;100397.66;;;-0.71;89.24
78615;BME280;67937;52.488;20.952;2023-11-21T08:23:57;100400.20;;;-0.69;89.24
78615;BME280;67937;52.488;20.952;2023-11-21T08:26:26;100402.56;;;-0.62;89.34
78615;BME280;67937;52.488;20.952;2023-11-21T08:28:54;100403.95;;;-0.56;89.22
78615;BME280;67937;52.488;20.952;2023-11-21T08:31:25;100409.51;;;-0.57;88.89
78615;BME280;67937;52.488;20.952;2023-11-21T08:33:53;100411.58;;;-0.56;89.02
78615;BME280;67937;52.488;20.952;2023-11-21T08:36:22;100415.88;;;-0.56;89.05
78615;BME280;67937;52.488;20.952;2023-11-21T08:38:50;100424.29;;;-0.53;88.76
78615;BME280;67937;52.488;20.952;2023-11-21T08:41:19;100424.61;;;-0.53;88.80
78615;BME280;67937;52.488;20.952;2023-11-21T08:43:49;100426.70;;;-0.52;88.75
78615;BME280;67937;52.488;20.952;2023-11-21T08:46:18;100428.56;;;-0.51;88.54
78615;BME280;67937;52.488;20.952;2023-11-21T08:48:45;100433.41;;;-0.51;88.52
78615;BME280;67937;52.488;20.952;2023-11-21T08:51:13;100435.98;;;-0.51;88.44
78615;BME280;67937;52.488;20.952;2023-11-21T08:53:42;100438.05;;;-0.50;88.35
78615;BME280;67937;52.488;20.952;2023-11-21T08:56:13;100434.96;;;-0.51;88.30
78615;BME280;67937;52.488;20.952;2023-11-21T08:58:41;100437.31;;;-0.49;88.30
78615;BME280;67937;52.488;20.952;2023-11-21T09:01:09;100438.33;;;-0.48;88.25
78615;BME280;67937;52.488;20.952;2023-11-21T09:03:38;100433.66;;;-0.48;88.08
78615;BME280;67937;52.488;20.952;2023-11-21T09:06:07;100439.98;;;-0.46;87.78
78615;BME280;67937;52.488;20.952;2023-11-21T09:08:36;100439.89;;;-0.43;87.82
78615;BME280;67937;52.488;20.952;2023-11-21T09:11:04;100441.94;;;-0.42;87.49
78615;BME280;67937;52.488;20.952;2023-11-21T09:13:32;100441.56;;;-0.46;87.31
78615;BME280;67937;52.488;20.952;2023-11-21T09:16:00;100441.85;;;-0.45;87.51
78615;BME280;67937;52.488;20.952;2023-11-21T09:18:28;100447.30;;;-0.41;87.47
78615;BME280;67937;52.488;20.952;2023-11-21T09:20:56;100448.52;;;-0.37;87.33
78615;BME280;67937;52.488;20.952;2023-11-21T09:23:24;100450.73;;;-0.40;87.10
78615;BME280;67937;52.488;20.952;2023-11-21T09:25:52;100452.66;;;-0.41;87.21
78615;BME280;67937;52.488;20.952;2023-11-21T09:28:23;100459.45;;;-0.42;87.07
78615;BME280;67937;52.488;20.952;2023-11-21T09:30:51;100461.09;;;-0.45;87.06
78615;BME280;67937;52.488;20.952;2023-11-21T09:33:19;100459.39;;;-0.46;86.98
78615;BME280;67937;52.488;20.952;2023-11-21T09:35:48;100463.77;;;-0.47;87.15
78615;BME280;67937;52.488;20.952;2023-11-21T09:38:17;100465.61;;;-0.50;87.10
78615;BME280;67937;52.488;20.952;2023-11-21T09:40:45;100464.84;;;-0.48;87.10
78615;BME280;67937;52.488;20.952;2023-11-21T09:43:17;100465.96;;;-0.45;87.16
78615;BME280;67937;52.488;20.952;2023-11-21T09:45:48;100462.77;;;-0.43;87.12
78615;BME280;67937;52.488;20.952;2023-11-21T09:48:18;100459.98;;;-0.42;87.23
78615;BME280;67937;52.488;20.952;2023-11-21T09:50:49;100464.83;;;-0.42;87.15
78615;BME280;67937;52.488;20.952;2023-11-21T09:53:21;100464.95;;;-0.41;87.40
78615;BME280;67937;52.488;20.952;2023-11-21T09:55:52;100462.52;;;-0.41;87.60
78615;BME280;67937;52.488;20.952;2023-11-21T09:58:20;100465.59;;;-0.39;87.48
78615;BME280;67937;52.488;20.952;2023-11-21T10:00:53;100469.91;;;-0.33;87.64
78615;BME280;67937;52.488;20.952;2023-11-21T10:03:21;100469.52;;;-0.27;87.63
78615;BME280;67937;52.488;20.952;2023-11-21T10:05:50;100475.02;;;-0.20;87.61
78615;BME280;67937;52.488;20.952;2023-11-21T10:08:19;100476.96;;;-0.16;87.52
78615;BME280;67937;52.488;20.952;2023-11-21T10:10:53;100476.85;;;-0.13;87.67
78615;BME280;67937;52.488;20.952;2023-11-21T10:13:22;100477.43;;;-0.09;87.63
78615;BME280;67937;52.488;20.952;2023-11-21T10:15:51;100480.13;;;-0.13;87.21
78615;BME280;67937;52.488;20.952;2023-11-21T10:18:19;100477.33;;;-0.12;87.58
78615;BME280;67937;52.488;20.952;2023-11-21T10:20:49;100476.74;;;-0.15;87.53
78615;BME280;67937;52.488;20.952;2023-11-21T10:23:20;100475.23;;;-0.16;87.84
78615;BME280;67937;52.488;20.952;2023-11-21T10:25:50;100480.53;;;-0.14;87.73
78615;BME280;67937;52.488;20.952;2023-11-21T10:28:18;100484.05;;;-0.16;87.54
78615;BME280;67937;52.488;20.952;2023-11-21T10:30:47;100483.69;;;-0.15;87.62
78615;BME280;67937;52.488;20.952;2023-11-21T10:33:15;100484.86;;;-0.14;87.44
78615;BME280;67937;52.488;20.952;2023-11-21T10:35:48;100487.38;;;-0.17;87.61
78615;BME280;67937;52.488;20.952;2023-11-21T10:38:17;100486.38;;;-0.18;87.63
78615;BME280;67937;52.488;20.952;2023-11-21T10:40:47;100486.81;;;-0.21;87.67
78615;BME280;67937;52.488;20.952;2023-11-21T10:43:16;100485.70;;;-0.18;87.58
78615;BME280;67937;52.488;20.952;2023-11-21T10:45:44;100487.16;;;-0.21;87.35
78615;BME280;67937;52.488;20.952;2023-11-21T10:48:14;100487.88;;;-0.21;87.33
78615;BME280;67937;52.488;20.952;2023-11-21T10:50:44;100494.79;;;-0.20;87.23
78615;BME280;67937;52.488;20.952;2023-11-21T10:53:13;100498.60;;;-0.20;87.42
78615;BME280;67937;52.488;20.952;2023-11-21T10:55:41;100501.05;;;-0.21;87.23
78615;BME280;67937;52.488;20.952;2023-11-21T10:58:13;100498.88;;;-0.23;87.13
78615;BME280;67937;52.488;20.952;2023-11-21T11:00:42;100498.11;;;-0.27;87.22
78615;BME280;67937;52.488;20.952;2023-11-21T11:03:11;100495.68;;;-0.27;87.14
78615;BME280;67937;52.488;20.952;2023-11-21T11:05:43;100493.41;;;-0.26;87.21
78615;BME280;67937;52.488;20.952;2023-11-21T11:08:19;100492.37;;;-0.21;87.05
78615;BME280;67937;52.488;20.952;2023-11-21T11:10:53;100492.83;;;-0.19;87.21
78615;BME280;67937;52.488;20.952;2023-11-21T11:13:21;100497.70;;;-0.14;86.96
78615;BME280;67937;52.488;20.952;2023-11-21T11:15:49;100502.98;;;-0.16;86.92
78615;BME280;67937;52.488;20.952;2023-11-21T11:18:18;100501.61;;;-0.17;86.97
78615;BME280;67937;52.488;20.952;2023-11-21T11:20:48;100502.59;;;-0.15;87.22
78615;BME280;67937;52.488;20.952;2023-11-21T11:29:04;100503.00;;;-0.12;87.28
78615;BME280;67937;52.488;20.952;2023-11-21T11:34:43;100504.41;;;-0.12;87.06
78615;BME280;67937;52.488;20.952;2023-11-21T11:37:11;100504.51;;;-0.15;87.00
78615;BME280;67937;52.488;20.952;2023-11-21T11:39:43;100503.43;;;-0.14;87.04
78615;BME280;67937;52.488;20.952;2023-11-21T11:42:17;100506.52;;;-0.13;86.98
78615;BME280;67937;52.488;20.952;2023-11-21T11:44:47;100510.70;;;-0.09;87.00
78615;BME280;67937;52.488;20.952;2023-11-21T11:47:23;100512.69;;;-0.06;86.93
78615;BME280;67937;52.488;20.952;2023-11-21T11:55:10;100513.23;;;-0.07;86.82
78615;BME280;67937;52.488;20.952;2023-11-21T11:57:40;100512.08;;;-0.03;86.83
78615;BME280;67937;52.488;20.952;2023-11-21T12:00:15;100514.04;;;-0.05;86.93
78615;BME280;67937;52.488;20.952;2023-11-21T12:02:47;100521.14;;;-0.05;87.00
78615;BME280;67937;52.488;20.952;2023-11-21T12:05:19;100522.81;;;-0.03;87.00
78615;BME280;67937;52.488;20.952;2023-11-21T12:07:52;100523.52;;;-0.03;86.89
78615;BME280;67937;52.488;20.952;2023-11-21T12:10:25;100523.21;;;-0.04;87.04
78615;BME280;67937;52.488;20.952;2023-11-21T12:12:59;100520.66;;;-0.06;87.03
78615;BME280;67937;52.488;20.952;2023-11-21T12:15:28;100523.81;;;-0.07;86.90
78615;BME280;67937;52.488;20.952;2023-11-21T12:17:58;100524.14;;;-0.06;86.91
78615;BME280;67937;52.488;20.952;2023-11-21T12:20:27;100525.67;;;-0.05;86.82
78615;BME280;67937;52.488;20.952;2023-11-21T12:22:57;100527.51;;;-0.08;86.64
78615;BME280;67937;52.488;20.952;2023-11-21T12:25:27;100524.27;;;-0.10;86.84
78615;BME280;67937;52.488;20.952;2023-11-21T12:27:56;100523.09;;;-0.11;86.81
78615;BME280;67937;52.488;20.952;2023-11-21T12:30:27;100520.92;;;-0.08;86.92
78615;BME280;67937;52.488;20.952;2023-11-21T12:32:58;100524.30;;;-0.05;86.89
78615;BME280;67937;52.488;20.952;2023-11-21T12:35:29;100528.17;;;-0.02;86.91
78615;BME280;67937;52.488;20.952;2023-11-21T12:37:57;100528.66;;;-0.00;86.63
78615;BME280;67937;52.488;20.952;2023-11-21T12:40:25;100532.83;;;-0.01;86.86
78615;BME280;67937;52.488;20.952;2023-11-21T12:42:56;100539.15;;;-0.04;86.42
78615;BME280;67937;52.488;20.952;2023-11-21T12:45:27;100545.35;;;-0.08;86.50
78615;BME280;67937;52.488;20.952;2023-11-21T12:48:05;100545.08;;;-0.10;86.70
78615;BME280;67937;52.488;20.952;2023-11-21T12:50:38;100543.83;;;-0.08;86.56
78615;BME280;67937;52.488;20.952;2023-11-21T12:53:08;100540.84;;;-0.13;86.36
78615;BME280;67937;52.488;20.952;2023-11-21T12:55:36;100547.36;;;-0.16;86.27
78615;BME280;67937;52.488;20.952;2023-11-21T12:58:06;100551.50;;;-0.15;86.47
78615;BME280;67937;52.488;20.952;2023-11-21T13:00:42;100556.69;;;-0.15;86.55
78615;BME280;67937;52.488;20.952;2023-11-21T13:03:11;100561.89;;;-0.15;86.66